<?xml version="1.0" encoding="UTF-8" standalone="no" ?>
<gpx xmlns="http://www.topografix.com/GPX/1/1" xmlns:xsi="http://www.w3.org/2001/XMLSchema-instance" xsi:schemaLocation="http://www.topografix.com/GPX/1/1 http://www.topografix.com/GPX/1/1/gpx.xsd" version="1.1" creator="VisuGPX - https://www.visugpx.com">
  <metadata>
    <name>Castelnau-de-Montmiral</name>
    <desc><![CDATA[
]]></desc>
  </metadata>
  <trk>
    <name><![CDATA[Castelnau-de-Montmiral]]></name>
    <trkseg>
      <trkpt lat="43.97232" lon="1.79207">
        <ele>165</ele>
        <time>2008-02-20T10:06:28.000Z</time>
      </trkpt>
      <trkpt lat="43.97228" lon="1.79185">
        <ele>165</ele>
        <time>2008-02-20T10:11:13.000Z</time>
      </trkpt>
      <trkpt lat="43.97212" lon="1.79158">
        <ele>165</ele>
        <time>2008-02-20T10:11:42.000Z</time>
      </trkpt>
      <trkpt lat="43.97197" lon="1.79147">
        <ele>165</ele>
        <time>2008-02-20T10:12:1.000Z</time>
      </trkpt>
      <trkpt lat="43.97183" lon="1.79125">
        <ele>165</ele>
        <time>2008-02-20T10:12:21.000Z</time>
      </trkpt>
      <trkpt lat="43.97163" lon="1.79093">
        <ele>165</ele>
        <time>2008-02-20T10:12:49.000Z</time>
      </trkpt>
      <trkpt lat="43.97147" lon="1.79055">
        <ele>164</ele>
        <time>2008-02-20T10:13:14.000Z</time>
      </trkpt>
      <trkpt lat="43.97108" lon="1.79012">
        <ele>163</ele>
        <time>2008-02-20T10:13:49.000Z</time>
      </trkpt>
      <trkpt lat="43.97075" lon="1.79008">
        <ele>163</ele>
        <time>2008-02-20T10:14:16.000Z</time>
      </trkpt>
      <trkpt lat="43.97053" lon="1.78997">
        <ele>163</ele>
        <time>2008-02-20T10:14:31.000Z</time>
      </trkpt>
      <trkpt lat="43.9704" lon="1.7897">
        <ele>162</ele>
        <time>2008-02-20T10:14:49.000Z</time>
      </trkpt>
      <trkpt lat="43.97023" lon="1.78953">
        <ele>161</ele>
        <time>2008-02-20T10:15:6.000Z</time>
      </trkpt>
      <trkpt lat="43.97002" lon="1.78957">
        <ele>160</ele>
        <time>2008-02-20T10:15:22.000Z</time>
      </trkpt>
      <trkpt lat="43.96978" lon="1.78975">
        <ele>160</ele>
        <time>2008-02-20T10:15:41.000Z</time>
      </trkpt>
      <trkpt lat="43.96963" lon="1.79013">
        <ele>160</ele>
        <time>2008-02-20T10:16:5.000Z</time>
      </trkpt>
      <trkpt lat="43.96952" lon="1.79048">
        <ele>161</ele>
        <time>2008-02-20T10:16:27.000Z</time>
      </trkpt>
      <trkpt lat="43.96932" lon="1.79068">
        <ele>160</ele>
        <time>2008-02-20T10:16:48.000Z</time>
      </trkpt>
      <trkpt lat="43.96903" lon="1.79072">
        <ele>160</ele>
        <time>2008-02-20T10:17:12.000Z</time>
      </trkpt>
      <trkpt lat="43.96875" lon="1.79065">
        <ele>161</ele>
        <time>2008-02-20T10:17:37.000Z</time>
      </trkpt>
      <trkpt lat="43.96867" lon="1.79088">
        <ele>162</ele>
        <time>2008-02-20T10:17:55.000Z</time>
      </trkpt>
      <trkpt lat="43.96838" lon="1.79078">
        <ele>164</ele>
        <time>2008-02-20T10:18:25.000Z</time>
      </trkpt>
      <trkpt lat="43.9682" lon="1.79063">
        <ele>165</ele>
        <time>2008-02-20T10:18:46.000Z</time>
      </trkpt>
      <trkpt lat="43.96807" lon="1.79035">
        <ele>166</ele>
        <time>2008-02-20T10:19:11.000Z</time>
      </trkpt>
      <trkpt lat="43.96793" lon="1.78997">
        <ele>166</ele>
        <time>2008-02-20T10:19:35.000Z</time>
      </trkpt>
      <trkpt lat="43.96782" lon="1.78957">
        <ele>165</ele>
        <time>2008-02-20T10:19:58.000Z</time>
      </trkpt>
      <trkpt lat="43.96767" lon="1.78907">
        <ele>164</ele>
        <time>2008-02-20T10:20:27.000Z</time>
      </trkpt>
      <trkpt lat="43.9675" lon="1.7886">
        <ele>164</ele>
        <time>2008-02-20T10:20:55.000Z</time>
      </trkpt>
      <trkpt lat="43.96722" lon="1.78798">
        <ele>165</ele>
        <time>2008-02-20T10:21:36.000Z</time>
      </trkpt>
      <trkpt lat="43.96683" lon="1.78747">
        <ele>166</ele>
        <time>2008-02-20T10:22:17.000Z</time>
      </trkpt>
      <trkpt lat="43.96642" lon="1.78707">
        <ele>165</ele>
        <time>2008-02-20T10:22:53.000Z</time>
      </trkpt>
      <trkpt lat="43.966" lon="1.7867">
        <ele>165</ele>
        <time>2008-02-20T10:23:30.000Z</time>
      </trkpt>
      <trkpt lat="43.96573" lon="1.7866">
        <ele>167</ele>
        <time>2008-02-20T10:23:51.000Z</time>
      </trkpt>
      <trkpt lat="43.96557" lon="1.78653">
        <ele>167</ele>
        <time>2008-02-20T10:24:5.000Z</time>
      </trkpt>
      <trkpt lat="43.96537" lon="1.7862">
        <ele>167</ele>
        <time>2008-02-20T10:24:30.000Z</time>
      </trkpt>
      <trkpt lat="43.96522" lon="1.78568">
        <ele>166</ele>
        <time>2008-02-20T10:25:1.000Z</time>
      </trkpt>
      <trkpt lat="43.96508" lon="1.78528">
        <ele>166</ele>
        <time>2008-02-20T10:25:27.000Z</time>
      </trkpt>
      <trkpt lat="43.965" lon="1.78487">
        <ele>164</ele>
        <time>2008-02-20T10:25:53.000Z</time>
      </trkpt>
      <trkpt lat="43.96488" lon="1.78417">
        <ele>163</ele>
        <time>2008-02-20T10:26:35.000Z</time>
      </trkpt>
      <trkpt lat="43.96487" lon="1.78378">
        <ele>162</ele>
        <time>2008-02-20T10:26:56.000Z</time>
      </trkpt>
      <trkpt lat="43.96482" lon="1.78337">
        <ele>162</ele>
        <time>2008-02-20T10:27:22.000Z</time>
      </trkpt>
      <trkpt lat="43.96477" lon="1.78313">
        <ele>162</ele>
        <time>2008-02-20T10:27:35.000Z</time>
      </trkpt>
      <trkpt lat="43.96465" lon="1.78272">
        <ele>162</ele>
        <time>2008-02-20T10:28:1.000Z</time>
      </trkpt>
      <trkpt lat="43.96457" lon="1.78222">
        <ele>162</ele>
        <time>2008-02-20T10:28:29.000Z</time>
      </trkpt>
      <trkpt lat="43.96453" lon="1.78183">
        <ele>163</ele>
        <time>2008-02-20T10:28:51.000Z</time>
      </trkpt>
      <trkpt lat="43.96453" lon="1.78097">
        <ele>162</ele>
        <time>2008-02-20T10:29:40.000Z</time>
      </trkpt>
      <trkpt lat="43.9646" lon="1.78055">
        <ele>162</ele>
        <time>2008-02-20T10:30:4.000Z</time>
      </trkpt>
      <trkpt lat="43.96492" lon="1.77947">
        <ele>160</ele>
        <time>2008-02-20T10:31:10.000Z</time>
      </trkpt>
      <trkpt lat="43.96518" lon="1.77823">
        <ele>158</ele>
        <time>2008-02-20T10:32:22.000Z</time>
      </trkpt>
      <trkpt lat="43.96517" lon="1.77775">
        <ele>158</ele>
        <time>2008-02-20T10:32:49.000Z</time>
      </trkpt>
      <trkpt lat="43.9651" lon="1.77718">
        <ele>159</ele>
        <time>2008-02-20T10:33:27.000Z</time>
      </trkpt>
      <trkpt lat="43.96502" lon="1.7768">
        <ele>159</ele>
        <time>2008-02-20T10:33:52.000Z</time>
      </trkpt>
      <trkpt lat="43.96487" lon="1.77622">
        <ele>159</ele>
        <time>2008-02-20T10:34:25.000Z</time>
      </trkpt>
      <trkpt lat="43.96477" lon="1.77583">
        <ele>160</ele>
        <time>2008-02-20T10:34:49.000Z</time>
      </trkpt>
      <trkpt lat="43.96465" lon="1.77515">
        <ele>160</ele>
        <time>2008-02-20T10:35:33.000Z</time>
      </trkpt>
      <trkpt lat="43.96457" lon="1.77388">
        <ele>159</ele>
        <time>2008-02-20T10:36:32.000Z</time>
      </trkpt>
      <trkpt lat="43.9646" lon="1.7735">
        <ele>160</ele>
        <time>2008-02-20T10:36:55.000Z</time>
      </trkpt>
      <trkpt lat="43.96465" lon="1.77312">
        <ele>160</ele>
        <time>2008-02-20T10:37:44.000Z</time>
      </trkpt>
      <trkpt lat="43.96462" lon="1.77282">
        <ele>162</ele>
        <time>2008-02-20T10:38:47.000Z</time>
      </trkpt>
      <trkpt lat="43.96472" lon="1.77252">
        <ele>161</ele>
        <time>2008-02-20T10:39:12.000Z</time>
      </trkpt>
      <trkpt lat="43.96452" lon="1.77227">
        <ele>164</ele>
        <time>2008-02-20T10:40:19.000Z</time>
      </trkpt>
      <trkpt lat="43.96442" lon="1.7724">
        <ele>166</ele>
        <time>2008-02-20T10:40:45.000Z</time>
      </trkpt>
      <trkpt lat="43.96422" lon="1.77255">
        <ele>170</ele>
        <time>2008-02-20T10:41:22.000Z</time>
      </trkpt>
      <trkpt lat="43.96398" lon="1.77282">
        <ele>174</ele>
        <time>2008-02-20T10:42:0.000Z</time>
      </trkpt>
      <trkpt lat="43.96378" lon="1.773">
        <ele>178</ele>
        <time>2008-02-20T10:43:1.000Z</time>
      </trkpt>
      <trkpt lat="43.96358" lon="1.77322">
        <ele>181</ele>
        <time>2008-02-20T10:43:42.000Z</time>
      </trkpt>
      <trkpt lat="43.96342" lon="1.77337">
        <ele>183</ele>
        <time>2008-02-20T10:44:16.000Z</time>
      </trkpt>
      <trkpt lat="43.96315" lon="1.77343">
        <ele>185</ele>
        <time>2008-02-20T10:44:54.000Z</time>
      </trkpt>
      <trkpt lat="43.96295" lon="1.77355">
        <ele>186</ele>
        <time>2008-02-20T10:45:16.000Z</time>
      </trkpt>
      <trkpt lat="43.96282" lon="1.77373">
        <ele>186</ele>
        <time>2008-02-20T10:45:35.000Z</time>
      </trkpt>
      <trkpt lat="43.9627" lon="1.77395">
        <ele>187</ele>
        <time>2008-02-20T10:45:58.000Z</time>
      </trkpt>
      <trkpt lat="43.9625" lon="1.77408">
        <ele>189</ele>
        <time>2008-02-20T10:46:20.000Z</time>
      </trkpt>
      <trkpt lat="43.96235" lon="1.77455">
        <ele>193</ele>
        <time>2008-02-20T10:46:54.000Z</time>
      </trkpt>
      <trkpt lat="43.96227" lon="1.77472">
        <ele>195</ele>
        <time>2008-02-20T10:47:13.000Z</time>
      </trkpt>
      <trkpt lat="43.96218" lon="1.77492">
        <ele>197</ele>
        <time>2008-02-20T10:47:34.000Z</time>
      </trkpt>
      <trkpt lat="43.96215" lon="1.77517">
        <ele>199</ele>
        <time>2008-02-20T10:47:54.000Z</time>
      </trkpt>
      <trkpt lat="43.96203" lon="1.7754">
        <ele>202</ele>
        <time>2008-02-20T10:48:19.000Z</time>
      </trkpt>
      <trkpt lat="43.96173" lon="1.77623">
        <ele>213</ele>
        <time>2008-02-20T10:49:43.000Z</time>
      </trkpt>
      <trkpt lat="43.96148" lon="1.7767">
        <ele>222</ele>
        <time>2008-02-20T10:50:48.000Z</time>
      </trkpt>
      <trkpt lat="43.96135" lon="1.7769">
        <ele>226</ele>
        <time>2008-02-20T10:51:29.000Z</time>
      </trkpt>
      <trkpt lat="43.96117" lon="1.77733">
        <ele>232</ele>
        <time>2008-02-20T10:52:52.000Z</time>
      </trkpt>
      <trkpt lat="43.96095" lon="1.77772">
        <ele>237</ele>
        <time>2008-02-20T10:53:34.000Z</time>
      </trkpt>
      <trkpt lat="43.96075" lon="1.77798">
        <ele>239</ele>
        <time>2008-02-20T10:54:4.000Z</time>
      </trkpt>
      <trkpt lat="43.96047" lon="1.77848">
        <ele>243</ele>
        <time>2008-02-20T10:54:55.000Z</time>
      </trkpt>
      <trkpt lat="43.96025" lon="1.77868">
        <ele>246</ele>
        <time>2008-02-20T10:55:31.000Z</time>
      </trkpt>
      <trkpt lat="43.96008" lon="1.77895">
        <ele>250</ele>
        <time>2008-02-20T10:56:2.000Z</time>
      </trkpt>
      <trkpt lat="43.95995" lon="1.77928">
        <ele>254</ele>
        <time>2008-02-20T10:56:41.000Z</time>
      </trkpt>
      <trkpt lat="43.9598" lon="1.78007">
        <ele>261</ele>
        <time>2008-02-20T10:57:58.000Z</time>
      </trkpt>
      <trkpt lat="43.95985" lon="1.78042">
        <ele>259</ele>
        <time>2008-02-20T10:59:35.000Z</time>
      </trkpt>
      <trkpt lat="43.95988" lon="1.78063">
        <ele>256</ele>
        <time>2008-02-20T10:59:53.000Z</time>
      </trkpt>
      <trkpt lat="43.95992" lon="1.78085">
        <ele>253</ele>
        <time>2008-02-20T11:00:10.000Z</time>
      </trkpt>
      <trkpt lat="43.95993" lon="1.78105">
        <ele>251</ele>
        <time>2008-02-20T11:00:25.000Z</time>
      </trkpt>
      <trkpt lat="43.95977" lon="1.78143">
        <ele>251</ele>
        <time>2008-02-20T11:00:55.000Z</time>
      </trkpt>
      <trkpt lat="43.95957" lon="1.78167">
        <ele>253</ele>
        <time>2008-02-20T11:01:20.000Z</time>
      </trkpt>
      <trkpt lat="43.9594" lon="1.78173">
        <ele>256</ele>
        <time>2008-02-20T11:01:46.000Z</time>
      </trkpt>
      <trkpt lat="43.95922" lon="1.78173">
        <ele>261</ele>
        <time>2008-02-20T11:02:12.000Z</time>
      </trkpt>
      <trkpt lat="43.95907" lon="1.78163">
        <ele>266</ele>
        <time>2008-02-20T11:02:50.000Z</time>
      </trkpt>
      <trkpt lat="43.95885" lon="1.78172">
        <ele>269</ele>
        <time>2008-02-20T11:03:44.000Z</time>
      </trkpt>
      <trkpt lat="43.95848" lon="1.78208">
        <ele>267</ele>
        <time>2008-02-20T11:03:46.000Z</time>
      </trkpt>
      <trkpt lat="43.95837" lon="1.78203">
        <ele>270</ele>
        <time>2008-02-20T11:04:7.000Z</time>
      </trkpt>
      <trkpt lat="43.95818" lon="1.78203">
        <ele>273</ele>
        <time>2008-02-20T11:04:29.000Z</time>
      </trkpt>
      <trkpt lat="43.95798" lon="1.78202">
        <ele>276</ele>
        <time>2008-02-20T11:05:3.000Z</time>
      </trkpt>
      <trkpt lat="43.95783" lon="1.782">
        <ele>278</ele>
        <time>2008-02-20T11:05:28.000Z</time>
      </trkpt>
      <trkpt lat="43.95748" lon="1.78213">
        <ele>282</ele>
        <time>2008-02-20T11:06:14.000Z</time>
      </trkpt>
      <trkpt lat="43.95717" lon="1.78237">
        <ele>280</ele>
        <time>2008-02-20T11:06:48.000Z</time>
      </trkpt>
      <trkpt lat="43.957" lon="1.78238">
        <ele>282</ele>
        <time>2008-02-20T11:07:21.000Z</time>
      </trkpt>
      <trkpt lat="43.95687" lon="1.78243">
        <ele>282</ele>
        <time>2008-02-20T11:07:44.000Z</time>
      </trkpt>
      <trkpt lat="43.95672" lon="1.78242">
        <ele>283</ele>
        <time>2008-02-20T11:08:11.000Z</time>
      </trkpt>
      <trkpt lat="43.95623" lon="1.78282">
        <ele>283</ele>
        <time>2008-02-20T11:08:45.000Z</time>
      </trkpt>
      <trkpt lat="43.95587" lon="1.78308">
        <ele>282</ele>
        <time>2008-02-20T11:09:13.000Z</time>
      </trkpt>
      <trkpt lat="43.95563" lon="1.78328">
        <ele>282</ele>
        <time>2008-02-20T11:09:37.000Z</time>
      </trkpt>
      <trkpt lat="43.95545" lon="1.78348">
        <ele>280</ele>
        <time>2008-02-20T11:09:58.000Z</time>
      </trkpt>
      <trkpt lat="43.95518" lon="1.78353">
        <ele>282</ele>
        <time>2008-02-20T11:10:30.000Z</time>
      </trkpt>
      <trkpt lat="43.95518" lon="1.78302">
        <ele>285</ele>
        <time>2008-02-20T11:11:0.000Z</time>
      </trkpt>
      <trkpt lat="43.95505" lon="1.78297">
        <ele>285</ele>
        <time>2008-02-20T11:11:24.000Z</time>
      </trkpt>
      <trkpt lat="43.95412" lon="1.7847">
        <ele>281</ele>
        <time>2008-02-20T11:12:39.000Z</time>
      </trkpt>
      <trkpt lat="43.95378" lon="1.78572">
        <ele>279</ele>
        <time>2008-02-20T11:13:24.000Z</time>
      </trkpt>
      <trkpt lat="43.95353" lon="1.7866">
        <ele>278</ele>
        <time>2008-02-20T11:14:11.000Z</time>
      </trkpt>
      <trkpt lat="43.95297" lon="1.78772">
        <ele>279</ele>
        <time>2008-02-20T11:15:21.000Z</time>
      </trkpt>
      <trkpt lat="43.9527" lon="1.78827">
        <ele>276</ele>
        <time>2008-02-20T11:15:55.000Z</time>
      </trkpt>
      <trkpt lat="43.952" lon="1.78975">
        <ele>280</ele>
        <time>2008-02-20T11:17:28.000Z</time>
      </trkpt>
      <trkpt lat="43.95188" lon="1.78998">
        <ele>279</ele>
        <time>2008-02-20T11:17:43.000Z</time>
      </trkpt>
      <trkpt lat="43.95175" lon="1.79027">
        <ele>280</ele>
        <time>2008-02-20T11:18:2.000Z</time>
      </trkpt>
      <trkpt lat="43.95153" lon="1.79075">
        <ele>278</ele>
        <time>2008-02-20T11:18:35.000Z</time>
      </trkpt>
      <trkpt lat="43.95123" lon="1.79143">
        <ele>277</ele>
        <time>2008-02-20T11:19:21.000Z</time>
      </trkpt>
      <trkpt lat="43.95108" lon="1.79182">
        <ele>277</ele>
        <time>2008-02-20T11:19:45.000Z</time>
      </trkpt>
      <trkpt lat="43.95067" lon="1.79283">
        <ele>277</ele>
        <time>2008-02-20T11:20:50.000Z</time>
      </trkpt>
      <trkpt lat="43.95053" lon="1.79328">
        <ele>277</ele>
        <time>2008-02-20T11:21:19.000Z</time>
      </trkpt>
      <trkpt lat="43.95045" lon="1.79363">
        <ele>278</ele>
        <time>2008-02-20T11:21:41.000Z</time>
      </trkpt>
      <trkpt lat="43.95027" lon="1.79408">
        <ele>282</ele>
        <time>2008-02-20T11:22:12.000Z</time>
      </trkpt>
      <trkpt lat="43.95035" lon="1.79448">
        <ele>280</ele>
        <time>2008-02-20T11:22:39.000Z</time>
      </trkpt>
      <trkpt lat="43.95088" lon="1.79702">
        <ele>286</ele>
        <time>2008-02-20T11:25:20.000Z</time>
      </trkpt>
      <trkpt lat="43.95097" lon="1.79757">
        <ele>287</ele>
        <time>2008-02-20T11:25:55.000Z</time>
      </trkpt>
      <trkpt lat="43.95102" lon="1.798">
        <ele>287</ele>
        <time>2008-02-20T11:26:22.000Z</time>
      </trkpt>
      <trkpt lat="43.95105" lon="1.79838">
        <ele>287</ele>
        <time>2008-02-20T11:26:46.000Z</time>
      </trkpt>
      <trkpt lat="43.95108" lon="1.79872">
        <ele>287</ele>
        <time>2008-02-20T11:27:10.000Z</time>
      </trkpt>
      <trkpt lat="43.95113" lon="1.79912">
        <ele>288</ele>
        <time>2008-02-20T11:27:34.000Z</time>
      </trkpt>
      <trkpt lat="43.95117" lon="1.7996">
        <ele>288</ele>
        <time>2008-02-20T11:28:0.000Z</time>
      </trkpt>
      <trkpt lat="43.95137" lon="1.80125">
        <ele>285</ele>
        <time>2008-02-20T11:29:34.000Z</time>
      </trkpt>
      <trkpt lat="43.95137" lon="1.80153">
        <ele>284</ele>
        <time>2008-02-20T11:29:51.000Z</time>
      </trkpt>
      <trkpt lat="43.95138" lon="1.80185">
        <ele>283</ele>
        <time>2008-02-20T11:30:23.000Z</time>
      </trkpt>
      <trkpt lat="43.95128" lon="1.80217">
        <ele>284</ele>
        <time>2008-02-20T11:31:16.000Z</time>
      </trkpt>
      <trkpt lat="43.95128" lon="1.80258">
        <ele>284</ele>
        <time>2008-02-20T11:31:43.000Z</time>
      </trkpt>
      <trkpt lat="43.9513" lon="1.80313">
        <ele>285</ele>
        <time>2008-02-20T11:32:18.000Z</time>
      </trkpt>
      <trkpt lat="43.95118" lon="1.80408">
        <ele>287</ele>
        <time>2008-02-20T11:33:11.000Z</time>
      </trkpt>
      <trkpt lat="43.95067" lon="1.80632">
        <ele>287</ele>
        <time>2008-02-20T11:35:23.000Z</time>
      </trkpt>
      <trkpt lat="43.95067" lon="1.80653">
        <ele>287</ele>
        <time>2008-02-20T11:35:43.000Z</time>
      </trkpt>
      <trkpt lat="43.95083" lon="1.8067">
        <ele>285</ele>
        <time>2008-02-20T11:36:5.000Z</time>
      </trkpt>
      <trkpt lat="43.95095" lon="1.80743">
        <ele>281</ele>
        <time>2008-02-20T11:36:52.000Z</time>
      </trkpt>
      <trkpt lat="43.95097" lon="1.808">
        <ele>280</ele>
        <time>2008-02-20T11:37:32.000Z</time>
      </trkpt>
      <trkpt lat="43.95097" lon="1.80828">
        <ele>279</ele>
        <time>2008-02-20T11:37:54.000Z</time>
      </trkpt>
      <trkpt lat="43.95117" lon="1.80868">
        <ele>278</ele>
        <time>2008-02-20T11:38:28.000Z</time>
      </trkpt>
      <trkpt lat="43.95128" lon="1.80925">
        <ele>282</ele>
        <time>2008-02-20T11:39:8.000Z</time>
      </trkpt>
      <trkpt lat="43.95138" lon="1.80972">
        <ele>285</ele>
        <time>2008-02-20T11:39:39.000Z</time>
      </trkpt>
      <trkpt lat="43.95158" lon="1.81055">
        <ele>282</ele>
        <time>2008-02-20T11:40:32.000Z</time>
      </trkpt>
      <trkpt lat="43.95172" lon="1.81122">
        <ele>279</ele>
        <time>2008-02-20T11:41:10.000Z</time>
      </trkpt>
      <trkpt lat="43.9517" lon="1.81148">
        <ele>280</ele>
        <time>2008-02-20T11:41:25.000Z</time>
      </trkpt>
      <trkpt lat="43.95178" lon="1.8118">
        <ele>279</ele>
        <time>2008-02-20T11:41:53.000Z</time>
      </trkpt>
      <trkpt lat="43.95198" lon="1.81202">
        <ele>278</ele>
        <time>2008-02-20T11:42:24.000Z</time>
      </trkpt>
      <trkpt lat="43.95215" lon="1.81213">
        <ele>279</ele>
        <time>2008-02-20T11:42:46.000Z</time>
      </trkpt>
      <trkpt lat="43.95268" lon="1.81237">
        <ele>282</ele>
        <time>2008-02-20T11:43:41.000Z</time>
      </trkpt>
      <trkpt lat="43.95282" lon="1.81255">
        <ele>284</ele>
        <time>2008-02-20T11:44:1.000Z</time>
      </trkpt>
      <trkpt lat="43.95275" lon="1.81285">
        <ele>285</ele>
        <time>2008-02-20T11:44:28.000Z</time>
      </trkpt>
      <trkpt lat="43.95268" lon="1.81313">
        <ele>286</ele>
        <time>2008-02-20T11:44:51.000Z</time>
      </trkpt>
      <trkpt lat="43.95245" lon="1.81338">
        <ele>287</ele>
        <time>2008-02-20T11:45:19.000Z</time>
      </trkpt>
      <trkpt lat="43.95227" lon="1.81375">
        <ele>286</ele>
        <time>2008-02-20T11:45:56.000Z</time>
      </trkpt>
      <trkpt lat="43.95195" lon="1.8142">
        <ele>284</ele>
        <time>2008-02-20T11:46:39.000Z</time>
      </trkpt>
      <trkpt lat="43.95128" lon="1.81513">
        <ele>281</ele>
        <time>2008-02-20T11:48:1.000Z</time>
      </trkpt>
      <trkpt lat="43.95108" lon="1.81552">
        <ele>279</ele>
        <time>2008-02-20T11:48:31.000Z</time>
      </trkpt>
      <trkpt lat="43.95037" lon="1.81715">
        <ele>283</ele>
        <time>2008-02-20T11:50:39.000Z</time>
      </trkpt>
      <trkpt lat="43.95018" lon="1.81765">
        <ele>283</ele>
        <time>2008-02-20T11:51:14.000Z</time>
      </trkpt>
      <trkpt lat="43.95015" lon="1.81792">
        <ele>283</ele>
        <time>2008-02-20T11:51:30.000Z</time>
      </trkpt>
      <trkpt lat="43.95018" lon="1.8182">
        <ele>280</ele>
        <time>2008-02-20T11:51:47.000Z</time>
      </trkpt>
      <trkpt lat="43.95023" lon="1.81855">
        <ele>279</ele>
        <time>2008-02-20T11:52:11.000Z</time>
      </trkpt>
      <trkpt lat="43.95037" lon="1.81892">
        <ele>278</ele>
        <time>2008-02-20T11:52:38.000Z</time>
      </trkpt>
      <trkpt lat="43.9506" lon="1.8192">
        <ele>277</ele>
        <time>2008-02-20T11:53:16.000Z</time>
      </trkpt>
      <trkpt lat="43.95083" lon="1.81912">
        <ele>274</ele>
        <time>2008-02-20T11:53:45.000Z</time>
      </trkpt>
      <trkpt lat="43.95097" lon="1.81908">
        <ele>273</ele>
        <time>2008-02-20T11:54:8.000Z</time>
      </trkpt>
      <trkpt lat="43.95127" lon="1.8189">
        <ele>273</ele>
        <time>2008-02-20T11:54:47.000Z</time>
      </trkpt>
      <trkpt lat="43.95148" lon="1.81873">
        <ele>272</ele>
        <time>2008-02-20T11:55:17.000Z</time>
      </trkpt>
      <trkpt lat="43.95167" lon="1.8187">
        <ele>274</ele>
        <time>2008-02-20T11:55:46.000Z</time>
      </trkpt>
      <trkpt lat="43.95192" lon="1.81867">
        <ele>275</ele>
        <time>2008-02-20T11:56:13.000Z</time>
      </trkpt>
      <trkpt lat="43.95225" lon="1.81863">
        <ele>273</ele>
        <time>2008-02-20T11:56:35.000Z</time>
      </trkpt>
      <trkpt lat="43.95243" lon="1.81872">
        <ele>270</ele>
        <time>2008-02-20T11:56:50.000Z</time>
      </trkpt>
      <trkpt lat="43.95253" lon="1.81892">
        <ele>269</ele>
        <time>2008-02-20T11:57:8.000Z</time>
      </trkpt>
      <trkpt lat="43.95268" lon="1.81915">
        <ele>261</ele>
        <time>2008-02-20T11:57:34.000Z</time>
      </trkpt>
      <trkpt lat="43.9529" lon="1.81925">
        <ele>254</ele>
        <time>2008-02-20T11:57:56.000Z</time>
      </trkpt>
      <trkpt lat="43.9532" lon="1.81912">
        <ele>247</ele>
        <time>2008-02-20T11:58:29.000Z</time>
      </trkpt>
      <trkpt lat="43.9536" lon="1.81893">
        <ele>240</ele>
        <time>2008-02-20T11:59:4.000Z</time>
      </trkpt>
      <trkpt lat="43.95388" lon="1.81877">
        <ele>235</ele>
        <time>2008-02-20T11:59:30.000Z</time>
      </trkpt>
      <trkpt lat="43.95408" lon="1.81868">
        <ele>232</ele>
        <time>2008-02-20T11:59:53.000Z</time>
      </trkpt>
      <trkpt lat="43.95432" lon="1.81868">
        <ele>229</ele>
        <time>2008-02-20T12:00:14.000Z</time>
      </trkpt>
      <trkpt lat="43.9545" lon="1.8187">
        <ele>227</ele>
        <time>2008-02-20T12:00:27.000Z</time>
      </trkpt>
      <trkpt lat="43.95463" lon="1.81888">
        <ele>227</ele>
        <time>2008-02-20T12:00:43.000Z</time>
      </trkpt>
      <trkpt lat="43.95497" lon="1.81907">
        <ele>227</ele>
        <time>2008-02-20T12:01:13.000Z</time>
      </trkpt>
      <trkpt lat="43.9554" lon="1.8191">
        <ele>227</ele>
        <time>2008-02-20T12:01:55.000Z</time>
      </trkpt>
      <trkpt lat="43.95563" lon="1.81923">
        <ele>230</ele>
        <time>2008-02-20T12:02:31.000Z</time>
      </trkpt>
      <trkpt lat="43.95612" lon="1.81912">
        <ele>229</ele>
        <time>2008-02-20T12:03:21.000Z</time>
      </trkpt>
      <trkpt lat="43.95633" lon="1.81917">
        <ele>231</ele>
        <time>2008-02-20T12:03:47.000Z</time>
      </trkpt>
      <trkpt lat="43.95652" lon="1.81925">
        <ele>233</ele>
        <time>2008-02-20T12:04:11.000Z</time>
      </trkpt>
      <trkpt lat="43.95672" lon="1.81942">
        <ele>236</ele>
        <time>2008-02-20T12:04:32.000Z</time>
      </trkpt>
      <trkpt lat="43.95718" lon="1.81958">
        <ele>239</ele>
        <time>2008-02-20T12:05:10.000Z</time>
      </trkpt>
      <trkpt lat="43.95778" lon="1.81962">
        <ele>236</ele>
        <time>2008-02-20T12:05:55.000Z</time>
      </trkpt>
      <trkpt lat="43.95818" lon="1.81983">
        <ele>234</ele>
        <time>2008-02-20T12:06:30.000Z</time>
      </trkpt>
      <trkpt lat="43.95835" lon="1.82013">
        <ele>231</ele>
        <time>2008-02-20T12:06:54.000Z</time>
      </trkpt>
      <trkpt lat="43.95845" lon="1.82037">
        <ele>228</ele>
        <time>2008-02-20T12:07:11.000Z</time>
      </trkpt>
      <trkpt lat="43.95865" lon="1.82032">
        <ele>225</ele>
        <time>2008-02-20T12:07:30.000Z</time>
      </trkpt>
      <trkpt lat="43.95883" lon="1.82037">
        <ele>221</ele>
        <time>2008-02-20T12:07:47.000Z</time>
      </trkpt>
      <trkpt lat="43.95897" lon="1.8207">
        <ele>218</ele>
        <time>2008-02-20T12:08:11.000Z</time>
      </trkpt>
      <trkpt lat="43.95925" lon="1.82103">
        <ele>214</ele>
        <time>2008-02-20T12:08:44.000Z</time>
      </trkpt>
      <trkpt lat="43.95952" lon="1.8212">
        <ele>213</ele>
        <time>2008-02-20T12:09:12.000Z</time>
      </trkpt>
      <trkpt lat="43.95977" lon="1.82138">
        <ele>216</ele>
        <time>2008-02-20T12:09:41.000Z</time>
      </trkpt>
      <trkpt lat="43.96005" lon="1.82163">
        <ele>223</ele>
        <time>2008-02-20T12:10:23.000Z</time>
      </trkpt>
      <trkpt lat="43.96037" lon="1.82168">
        <ele>226</ele>
        <time>2008-02-20T12:10:58.000Z</time>
      </trkpt>
      <trkpt lat="43.96093" lon="1.82143">
        <ele>223</ele>
        <time>2008-02-20T12:11:48.000Z</time>
      </trkpt>
      <trkpt lat="43.96148" lon="1.8212">
        <ele>219</ele>
        <time>2008-02-20T12:12:41.000Z</time>
      </trkpt>
      <trkpt lat="43.9618" lon="1.82142">
        <ele>222</ele>
        <time>2008-02-20T12:13:14.000Z</time>
      </trkpt>
      <trkpt lat="43.96215" lon="1.82163">
        <ele>225</ele>
        <time>2008-02-20T12:13:54.000Z</time>
      </trkpt>
      <trkpt lat="43.96248" lon="1.82158">
        <ele>229</ele>
        <time>2008-02-20T12:14:36.000Z</time>
      </trkpt>
      <trkpt lat="43.96262" lon="1.82148">
        <ele>231</ele>
        <time>2008-02-20T12:14:55.000Z</time>
      </trkpt>
      <trkpt lat="43.96283" lon="1.82127">
        <ele>235</ele>
        <time>2008-02-20T12:15:27.000Z</time>
      </trkpt>
      <trkpt lat="43.9631" lon="1.82113">
        <ele>240</ele>
        <time>2008-02-20T12:16:4.000Z</time>
      </trkpt>
      <trkpt lat="43.9633" lon="1.82112">
        <ele>243</ele>
        <time>2008-02-20T12:16:32.000Z</time>
      </trkpt>
      <trkpt lat="43.9637" lon="1.82122">
        <ele>250</ele>
        <time>2008-02-20T12:17:34.000Z</time>
      </trkpt>
      <trkpt lat="43.96382" lon="1.82132">
        <ele>253</ele>
        <time>2008-02-20T12:17:53.000Z</time>
      </trkpt>
      <trkpt lat="43.96402" lon="1.82142">
        <ele>258</ele>
        <time>2008-02-20T12:18:18.000Z</time>
      </trkpt>
      <trkpt lat="43.96422" lon="1.82137">
        <ele>260</ele>
        <time>2008-02-20T12:18:49.000Z</time>
      </trkpt>
      <trkpt lat="43.96443" lon="1.82123">
        <ele>262</ele>
        <time>2008-02-20T12:19:18.000Z</time>
      </trkpt>
      <trkpt lat="43.9646" lon="1.8215">
        <ele>264</ele>
        <time>2008-02-20T12:19:25.000Z</time>
      </trkpt>
      <trkpt lat="43.96473" lon="1.82132">
        <ele>266</ele>
        <time>2008-02-20T12:19:32.000Z</time>
      </trkpt>
      <trkpt lat="43.9649" lon="1.82145">
        <ele>266</ele>
        <time>2008-02-20T12:19:44.000Z</time>
      </trkpt>
      <trkpt lat="43.96502" lon="1.82153">
        <ele>266</ele>
        <time>2008-02-20T12:22:12.000Z</time>
      </trkpt>
      <trkpt lat="43.96503" lon="1.8213">
        <ele>271</ele>
        <time>2008-02-20T12:23:10.000Z</time>
      </trkpt>
      <trkpt lat="43.96503" lon="1.82115">
        <ele>273</ele>
        <time>2008-02-20T12:28:15.000Z</time>
      </trkpt>
      <trkpt lat="43.96502" lon="1.82142">
        <ele>269</ele>
        <time>2008-02-20T12:47:6.000Z</time>
      </trkpt>
      <trkpt lat="43.96518" lon="1.82128">
        <ele>275</ele>
        <time>2008-02-20T12:57:6.000Z</time>
      </trkpt>
      <trkpt lat="43.9653" lon="1.82127">
        <ele>277</ele>
        <time>2008-02-20T12:58:54.000Z</time>
      </trkpt>
      <trkpt lat="43.96533" lon="1.82095">
        <ele>280</ele>
        <time>2008-02-20T12:59:26.000Z</time>
      </trkpt>
      <trkpt lat="43.96548" lon="1.82035">
        <ele>285</ele>
        <time>2008-02-20T13:00:8.000Z</time>
      </trkpt>
      <trkpt lat="43.9656" lon="1.82023">
        <ele>287</ele>
        <time>2008-02-20T13:00:20.000Z</time>
      </trkpt>
      <trkpt lat="43.96573" lon="1.8201">
        <ele>288</ele>
        <time>2008-02-20T13:00:37.000Z</time>
      </trkpt>
      <trkpt lat="43.9658" lon="1.81997">
        <ele>288</ele>
        <time>2008-02-20T13:01:28.000Z</time>
      </trkpt>
      <trkpt lat="43.96602" lon="1.81997">
        <ele>288</ele>
        <time>2008-02-20T13:02:0.000Z</time>
      </trkpt>
      <trkpt lat="43.96602" lon="1.8202">
        <ele>288</ele>
        <time>2008-02-20T13:02:7.000Z</time>
      </trkpt>
      <trkpt lat="43.96608" lon="1.81997">
        <ele>288</ele>
        <time>2008-02-20T13:02:16.000Z</time>
      </trkpt>
      <trkpt lat="43.96622" lon="1.81982">
        <ele>285</ele>
        <time>2008-02-20T13:02:34.000Z</time>
      </trkpt>
      <trkpt lat="43.9664" lon="1.82028">
        <ele>281</ele>
        <time>2008-02-20T13:03:7.000Z</time>
      </trkpt>
      <trkpt lat="43.96627" lon="1.81963">
        <ele>283</ele>
        <time>2008-02-20T13:06:52.000Z</time>
      </trkpt>
      <trkpt lat="43.96642" lon="1.81962">
        <ele>282</ele>
        <time>2008-02-20T13:07:32.000Z</time>
      </trkpt>
      <trkpt lat="43.9665" lon="1.81927">
        <ele>276</ele>
        <time>2008-02-20T13:07:36.000Z</time>
      </trkpt>
      <trkpt lat="43.96682" lon="1.81947">
        <ele>276</ele>
        <time>2008-02-20T13:07:55.000Z</time>
      </trkpt>
      <trkpt lat="43.96707" lon="1.81955">
        <ele>273</ele>
        <time>2008-02-20T13:08:3.000Z</time>
      </trkpt>
      <trkpt lat="43.96702" lon="1.8194">
        <ele>274</ele>
        <time>2008-02-20T13:08:47.000Z</time>
      </trkpt>
      <trkpt lat="43.96692" lon="1.81958">
        <ele>275</ele>
        <time>2008-02-20T13:10:15.000Z</time>
      </trkpt>
      <trkpt lat="43.96718" lon="1.81973">
        <ele>271</ele>
        <time>2008-02-20T13:11:18.000Z</time>
      </trkpt>
      <trkpt lat="43.96742" lon="1.8198">
        <ele>267</ele>
        <time>2008-02-20T13:11:56.000Z</time>
      </trkpt>
      <trkpt lat="43.96755" lon="1.81985">
        <ele>265</ele>
        <time>2008-02-20T13:13:34.000Z</time>
      </trkpt>
      <trkpt lat="43.96777" lon="1.82017">
        <ele>258</ele>
        <time>2008-02-20T13:14:10.000Z</time>
      </trkpt>
      <trkpt lat="43.96788" lon="1.82037">
        <ele>254</ele>
        <time>2008-02-20T13:14:30.000Z</time>
      </trkpt>
      <trkpt lat="43.96808" lon="1.82068">
        <ele>247</ele>
        <time>2008-02-20T13:14:58.000Z</time>
      </trkpt>
      <trkpt lat="43.96823" lon="1.82102">
        <ele>241</ele>
        <time>2008-02-20T13:15:29.000Z</time>
      </trkpt>
      <trkpt lat="43.96845" lon="1.82133">
        <ele>234</ele>
        <time>2008-02-20T13:15:56.000Z</time>
      </trkpt>
      <trkpt lat="43.96857" lon="1.82158">
        <ele>231</ele>
        <time>2008-02-20T13:16:16.000Z</time>
      </trkpt>
      <trkpt lat="43.969" lon="1.8222">
        <ele>223</ele>
        <time>2008-02-20T13:17:11.000Z</time>
      </trkpt>
      <trkpt lat="43.96925" lon="1.8226">
        <ele>221</ele>
        <time>2008-02-20T13:17:43.000Z</time>
      </trkpt>
      <trkpt lat="43.96948" lon="1.82317">
        <ele>221</ele>
        <time>2008-02-20T13:18:20.000Z</time>
      </trkpt>
      <trkpt lat="43.9696" lon="1.82358">
        <ele>221</ele>
        <time>2008-02-20T13:18:46.000Z</time>
      </trkpt>
      <trkpt lat="43.96982" lon="1.82403">
        <ele>220</ele>
        <time>2008-02-20T13:19:23.000Z</time>
      </trkpt>
      <trkpt lat="43.97002" lon="1.82422">
        <ele>220</ele>
        <time>2008-02-20T13:19:44.000Z</time>
      </trkpt>
      <trkpt lat="43.97018" lon="1.8244">
        <ele>219</ele>
        <time>2008-02-20T13:20:2.000Z</time>
      </trkpt>
      <trkpt lat="43.97075" lon="1.82482">
        <ele>221</ele>
        <time>2008-02-20T13:20:57.000Z</time>
      </trkpt>
      <trkpt lat="43.97095" lon="1.82505">
        <ele>221</ele>
        <time>2008-02-20T13:21:24.000Z</time>
      </trkpt>
      <trkpt lat="43.97113" lon="1.82523">
        <ele>222</ele>
        <time>2008-02-20T13:21:44.000Z</time>
      </trkpt>
      <trkpt lat="43.97155" lon="1.82558">
        <ele>222</ele>
        <time>2008-02-20T13:22:22.000Z</time>
      </trkpt>
      <trkpt lat="43.97178" lon="1.82585">
        <ele>222</ele>
        <time>2008-02-20T13:22:48.000Z</time>
      </trkpt>
      <trkpt lat="43.97192" lon="1.82607">
        <ele>222</ele>
        <time>2008-02-20T13:23:7.000Z</time>
      </trkpt>
      <trkpt lat="43.97202" lon="1.82647">
        <ele>222</ele>
        <time>2008-02-20T13:23:34.000Z</time>
      </trkpt>
      <trkpt lat="43.97222" lon="1.82672">
        <ele>222</ele>
        <time>2008-02-20T13:23:57.000Z</time>
      </trkpt>
      <trkpt lat="43.97247" lon="1.82692">
        <ele>221</ele>
        <time>2008-02-20T13:24:22.000Z</time>
      </trkpt>
      <trkpt lat="43.97265" lon="1.8272">
        <ele>220</ele>
        <time>2008-02-20T13:24:43.000Z</time>
      </trkpt>
      <trkpt lat="43.97282" lon="1.8276">
        <ele>218</ele>
        <time>2008-02-20T13:25:10.000Z</time>
      </trkpt>
      <trkpt lat="43.97295" lon="1.828">
        <ele>216</ele>
        <time>2008-02-20T13:25:37.000Z</time>
      </trkpt>
      <trkpt lat="43.97307" lon="1.82832">
        <ele>213</ele>
        <time>2008-02-20T13:26:1.000Z</time>
      </trkpt>
      <trkpt lat="43.97328" lon="1.82878">
        <ele>209</ele>
        <time>2008-02-20T13:26:34.000Z</time>
      </trkpt>
      <trkpt lat="43.97347" lon="1.8292">
        <ele>205</ele>
        <time>2008-02-20T13:27:4.000Z</time>
      </trkpt>
      <trkpt lat="43.97415" lon="1.82992">
        <ele>196</ele>
        <time>2008-02-20T13:28:19.000Z</time>
      </trkpt>
      <trkpt lat="43.97463" lon="1.83008">
        <ele>192</ele>
        <time>2008-02-20T13:29:4.000Z</time>
      </trkpt>
      <trkpt lat="43.97478" lon="1.83027">
        <ele>190</ele>
        <time>2008-02-20T13:29:21.000Z</time>
      </trkpt>
      <trkpt lat="43.97495" lon="1.83062">
        <ele>188</ele>
        <time>2008-02-20T13:29:47.000Z</time>
      </trkpt>
      <trkpt lat="43.97545" lon="1.83125">
        <ele>183</ele>
        <time>2008-02-20T13:30:42.000Z</time>
      </trkpt>
      <trkpt lat="43.97563" lon="1.8314">
        <ele>182</ele>
        <time>2008-02-20T13:31:3.000Z</time>
      </trkpt>
      <trkpt lat="43.97643" lon="1.83138">
        <ele>181</ele>
        <time>2008-02-20T13:32:9.000Z</time>
      </trkpt>
      <trkpt lat="43.9772" lon="1.83155">
        <ele>180</ele>
        <time>2008-02-20T13:33:15.000Z</time>
      </trkpt>
      <trkpt lat="43.97743" lon="1.83177">
        <ele>179</ele>
        <time>2008-02-20T13:33:37.000Z</time>
      </trkpt>
      <trkpt lat="43.97763" lon="1.8321">
        <ele>181</ele>
        <time>2008-02-20T13:34:6.000Z</time>
      </trkpt>
      <trkpt lat="43.97775" lon="1.83242">
        <ele>182</ele>
        <time>2008-02-20T13:34:30.000Z</time>
      </trkpt>
      <trkpt lat="43.97783" lon="1.83262">
        <ele>182</ele>
        <time>2008-02-20T13:34:44.000Z</time>
      </trkpt>
      <trkpt lat="43.97812" lon="1.83313">
        <ele>181</ele>
        <time>2008-02-20T13:35:25.000Z</time>
      </trkpt>
      <trkpt lat="43.97858" lon="1.83395">
        <ele>177</ele>
        <time>2008-02-20T13:36:24.000Z</time>
      </trkpt>
      <trkpt lat="43.97868" lon="1.83418">
        <ele>176</ele>
        <time>2008-02-20T13:37:50.000Z</time>
      </trkpt>
      <trkpt lat="43.97865" lon="1.8347">
        <ele>177</ele>
        <time>2008-02-20T13:39:27.000Z</time>
      </trkpt>
      <trkpt lat="43.97855" lon="1.83507">
        <ele>176</ele>
        <time>2008-02-20T13:39:51.000Z</time>
      </trkpt>
      <trkpt lat="43.97837" lon="1.83577">
        <ele>175</ele>
        <time>2008-02-20T13:40:39.000Z</time>
      </trkpt>
      <trkpt lat="43.97813" lon="1.8363">
        <ele>178</ele>
        <time>2008-02-20T13:41:29.000Z</time>
      </trkpt>
      <trkpt lat="43.97815" lon="1.8366">
        <ele>178</ele>
        <time>2008-02-20T13:42:1.000Z</time>
      </trkpt>
      <trkpt lat="43.97803" lon="1.83682">
        <ele>179</ele>
        <time>2008-02-20T13:42:22.000Z</time>
      </trkpt>
      <trkpt lat="43.978" lon="1.83707">
        <ele>179</ele>
        <time>2008-02-20T13:42:42.000Z</time>
      </trkpt>
      <trkpt lat="43.97792" lon="1.8374">
        <ele>178</ele>
        <time>2008-02-20T13:43:9.000Z</time>
      </trkpt>
      <trkpt lat="43.9779" lon="1.83792">
        <ele>178</ele>
        <time>2008-02-20T13:43:48.000Z</time>
      </trkpt>
      <trkpt lat="43.97758" lon="1.83872">
        <ele>179</ele>
        <time>2008-02-20T13:44:54.000Z</time>
      </trkpt>
      <trkpt lat="43.97747" lon="1.83903">
        <ele>178</ele>
        <time>2008-02-20T13:45:10.000Z</time>
      </trkpt>
      <trkpt lat="43.97757" lon="1.83947">
        <ele>180</ele>
        <time>2008-02-20T13:45:41.000Z</time>
      </trkpt>
      <trkpt lat="43.97765" lon="1.8397">
        <ele>183</ele>
        <time>2008-02-20T13:46:9.000Z</time>
      </trkpt>
      <trkpt lat="43.97778" lon="1.83978">
        <ele>185</ele>
        <time>2008-02-20T13:46:24.000Z</time>
      </trkpt>
      <trkpt lat="43.9779" lon="1.83987">
        <ele>188</ele>
        <time>2008-02-20T13:46:48.000Z</time>
      </trkpt>
      <trkpt lat="43.97817" lon="1.83988">
        <ele>194</ele>
        <time>2008-02-20T13:47:45.000Z</time>
      </trkpt>
      <trkpt lat="43.97833" lon="1.84032">
        <ele>197</ele>
        <time>2008-02-20T13:48:1.000Z</time>
      </trkpt>
      <trkpt lat="43.97853" lon="1.84023">
        <ele>200</ele>
        <time>2008-02-20T13:48:29.000Z</time>
      </trkpt>
      <trkpt lat="43.97872" lon="1.84018">
        <ele>204</ele>
        <time>2008-02-20T13:48:54.000Z</time>
      </trkpt>
      <trkpt lat="43.97882" lon="1.84028">
        <ele>205</ele>
        <time>2008-02-20T13:49:18.000Z</time>
      </trkpt>
      <trkpt lat="43.97895" lon="1.84038">
        <ele>206</ele>
        <time>2008-02-20T13:49:38.000Z</time>
      </trkpt>
      <trkpt lat="43.97918" lon="1.84033">
        <ele>210</ele>
        <time>2008-02-20T13:50:7.000Z</time>
      </trkpt>
      <trkpt lat="43.98" lon="1.84035">
        <ele>218</ele>
        <time>2008-02-20T13:51:31.000Z</time>
      </trkpt>
      <trkpt lat="43.98078" lon="1.84035">
        <ele>220</ele>
        <time>2008-02-20T13:52:43.000Z</time>
      </trkpt>
      <trkpt lat="43.98088" lon="1.84012">
        <ele>219</ele>
        <time>2008-02-20T13:55:48.000Z</time>
      </trkpt>
      <trkpt lat="43.98087" lon="1.83913">
        <ele>222</ele>
        <time>2008-02-20T13:56:51.000Z</time>
      </trkpt>
      <trkpt lat="43.98087" lon="1.83878">
        <ele>223</ele>
        <time>2008-02-20T13:57:15.000Z</time>
      </trkpt>
      <trkpt lat="43.98087" lon="1.83812">
        <ele>227</ele>
        <time>2008-02-20T13:58:0.000Z</time>
      </trkpt>
      <trkpt lat="43.98083" lon="1.83787">
        <ele>228</ele>
        <time>2008-02-20T13:58:24.000Z</time>
      </trkpt>
      <trkpt lat="43.98087" lon="1.8375">
        <ele>228</ele>
        <time>2008-02-20T13:58:49.000Z</time>
      </trkpt>
      <trkpt lat="43.98093" lon="1.83713">
        <ele>228</ele>
        <time>2008-02-20T13:59:19.000Z</time>
      </trkpt>
      <trkpt lat="43.98098" lon="1.83672">
        <ele>226</ele>
        <time>2008-02-20T13:59:46.000Z</time>
      </trkpt>
      <trkpt lat="43.98087" lon="1.83617">
        <ele>223</ele>
        <time>2008-02-20T14:00:22.000Z</time>
      </trkpt>
      <trkpt lat="43.98093" lon="1.83582">
        <ele>223</ele>
        <time>2008-02-20T14:00:46.000Z</time>
      </trkpt>
      <trkpt lat="43.98103" lon="1.83535">
        <ele>222</ele>
        <time>2008-02-20T14:01:18.000Z</time>
      </trkpt>
      <trkpt lat="43.98113" lon="1.83503">
        <ele>222</ele>
        <time>2008-02-20T14:01:38.000Z</time>
      </trkpt>
      <trkpt lat="43.98122" lon="1.83468">
        <ele>223</ele>
        <time>2008-02-20T14:02:1.000Z</time>
      </trkpt>
      <trkpt lat="43.98137" lon="1.834">
        <ele>224</ele>
        <time>2008-02-20T14:02:46.000Z</time>
      </trkpt>
      <trkpt lat="43.98145" lon="1.8336">
        <ele>225</ele>
        <time>2008-02-20T14:03:13.000Z</time>
      </trkpt>
      <trkpt lat="43.98147" lon="1.83333">
        <ele>223</ele>
        <time>2008-02-20T14:03:31.000Z</time>
      </trkpt>
      <trkpt lat="43.98153" lon="1.83293">
        <ele>218</ele>
        <time>2008-02-20T14:03:56.000Z</time>
      </trkpt>
      <trkpt lat="43.98167" lon="1.83237">
        <ele>211</ele>
        <time>2008-02-20T14:04:36.000Z</time>
      </trkpt>
      <trkpt lat="43.98175" lon="1.83207">
        <ele>209</ele>
        <time>2008-02-20T14:04:57.000Z</time>
      </trkpt>
      <trkpt lat="43.98182" lon="1.83163">
        <ele>207</ele>
        <time>2008-02-20T14:05:28.000Z</time>
      </trkpt>
      <trkpt lat="43.98185" lon="1.83142">
        <ele>206</ele>
        <time>2008-02-20T14:05:43.000Z</time>
      </trkpt>
      <trkpt lat="43.98205" lon="1.82968">
        <ele>204</ele>
        <time>2008-02-20T14:07:34.000Z</time>
      </trkpt>
      <trkpt lat="43.98208" lon="1.82935">
        <ele>204</ele>
        <time>2008-02-20T14:07:54.000Z</time>
      </trkpt>
      <trkpt lat="43.98213" lon="1.82908">
        <ele>204</ele>
        <time>2008-02-20T14:08:12.000Z</time>
      </trkpt>
      <trkpt lat="43.9822" lon="1.82865">
        <ele>202</ele>
        <time>2008-02-20T14:08:41.000Z</time>
      </trkpt>
      <trkpt lat="43.98222" lon="1.82837">
        <ele>201</ele>
        <time>2008-02-20T14:09:0.000Z</time>
      </trkpt>
      <trkpt lat="43.98225" lon="1.82802">
        <ele>200</ele>
        <time>2008-02-20T14:09:22.000Z</time>
      </trkpt>
      <trkpt lat="43.98222" lon="1.82772">
        <ele>201</ele>
        <time>2008-02-20T14:09:37.000Z</time>
      </trkpt>
      <trkpt lat="43.98215" lon="1.82722">
        <ele>202</ele>
        <time>2008-02-20T14:10:4.000Z</time>
      </trkpt>
      <trkpt lat="43.98183" lon="1.82623">
        <ele>199</ele>
        <time>2008-02-20T14:11:2.000Z</time>
      </trkpt>
      <trkpt lat="43.9817" lon="1.82593">
        <ele>195</ele>
        <time>2008-02-20T14:11:21.000Z</time>
      </trkpt>
      <trkpt lat="43.98163" lon="1.82553">
        <ele>191</ele>
        <time>2008-02-20T14:11:45.000Z</time>
      </trkpt>
      <trkpt lat="43.9816" lon="1.82527">
        <ele>189</ele>
        <time>2008-02-20T14:12:1.000Z</time>
      </trkpt>
      <trkpt lat="43.98153" lon="1.8249">
        <ele>185</ele>
        <time>2008-02-20T14:12:26.000Z</time>
      </trkpt>
      <trkpt lat="43.98158" lon="1.8246">
        <ele>183</ele>
        <time>2008-02-20T14:13:18.000Z</time>
      </trkpt>
      <trkpt lat="43.9814" lon="1.82432">
        <ele>182</ele>
        <time>2008-02-20T14:14:4.000Z</time>
      </trkpt>
      <trkpt lat="43.98128" lon="1.8241">
        <ele>182</ele>
        <time>2008-02-20T14:14:21.000Z</time>
      </trkpt>
      <trkpt lat="43.98113" lon="1.82395">
        <ele>181</ele>
        <time>2008-02-20T14:14:43.000Z</time>
      </trkpt>
      <trkpt lat="43.98077" lon="1.8236">
        <ele>181</ele>
        <time>2008-02-20T14:15:20.000Z</time>
      </trkpt>
      <trkpt lat="43.98043" lon="1.82342">
        <ele>180</ele>
        <time>2008-02-20T14:15:40.000Z</time>
      </trkpt>
      <trkpt lat="43.9801" lon="1.8232">
        <ele>179</ele>
        <time>2008-02-20T14:16:9.000Z</time>
      </trkpt>
      <trkpt lat="43.9798" lon="1.82295">
        <ele>178</ele>
        <time>2008-02-20T14:16:39.000Z</time>
      </trkpt>
      <trkpt lat="43.97947" lon="1.82285">
        <ele>178</ele>
        <time>2008-02-20T14:17:31.000Z</time>
      </trkpt>
      <trkpt lat="43.97933" lon="1.82275">
        <ele>177</ele>
        <time>2008-02-20T14:18:27.000Z</time>
      </trkpt>
      <trkpt lat="43.97917" lon="1.82277">
        <ele>177</ele>
        <time>2008-02-20T14:20:7.000Z</time>
      </trkpt>
      <trkpt lat="43.97893" lon="1.82262">
        <ele>177</ele>
        <time>2008-02-20T14:20:30.000Z</time>
      </trkpt>
      <trkpt lat="43.97872" lon="1.82228">
        <ele>176</ele>
        <time>2008-02-20T14:21:3.000Z</time>
      </trkpt>
      <trkpt lat="43.97853" lon="1.82192">
        <ele>177</ele>
        <time>2008-02-20T14:21:36.000Z</time>
      </trkpt>
      <trkpt lat="43.97848" lon="1.82168">
        <ele>177</ele>
        <time>2008-02-20T14:21:55.000Z</time>
      </trkpt>
      <trkpt lat="43.97852" lon="1.82148">
        <ele>176</ele>
        <time>2008-02-20T14:22:13.000Z</time>
      </trkpt>
      <trkpt lat="43.9786" lon="1.82123">
        <ele>176</ele>
        <time>2008-02-20T14:22:35.000Z</time>
      </trkpt>
      <trkpt lat="43.97867" lon="1.82098">
        <ele>176</ele>
        <time>2008-02-20T14:22:55.000Z</time>
      </trkpt>
      <trkpt lat="43.97875" lon="1.8207">
        <ele>176</ele>
        <time>2008-02-20T14:23:16.000Z</time>
      </trkpt>
      <trkpt lat="43.97882" lon="1.8204">
        <ele>176</ele>
        <time>2008-02-20T14:23:38.000Z</time>
      </trkpt>
      <trkpt lat="43.97887" lon="1.82012">
        <ele>176</ele>
        <time>2008-02-20T14:23:59.000Z</time>
      </trkpt>
      <trkpt lat="43.97888" lon="1.81982">
        <ele>176</ele>
        <time>2008-02-20T14:24:19.000Z</time>
      </trkpt>
      <trkpt lat="43.97882" lon="1.8192">
        <ele>177</ele>
        <time>2008-02-20T14:24:56.000Z</time>
      </trkpt>
      <trkpt lat="43.97858" lon="1.81862">
        <ele>177</ele>
        <time>2008-02-20T14:25:34.000Z</time>
      </trkpt>
      <trkpt lat="43.97847" lon="1.81838">
        <ele>177</ele>
        <time>2008-02-20T14:25:52.000Z</time>
      </trkpt>
      <trkpt lat="43.97847" lon="1.8182">
        <ele>177</ele>
        <time>2008-02-20T14:26:5.000Z</time>
      </trkpt>
      <trkpt lat="43.97858" lon="1.81778">
        <ele>177</ele>
        <time>2008-02-20T14:26:32.000Z</time>
      </trkpt>
      <trkpt lat="43.97857" lon="1.81755">
        <ele>176</ele>
        <time>2008-02-20T14:26:52.000Z</time>
      </trkpt>
      <trkpt lat="43.97827" lon="1.81753">
        <ele>177</ele>
        <time>2008-02-20T14:27:19.000Z</time>
      </trkpt>
      <trkpt lat="43.97822" lon="1.81728">
        <ele>177</ele>
        <time>2008-02-20T14:27:40.000Z</time>
      </trkpt>
      <trkpt lat="43.97825" lon="1.81695">
        <ele>176</ele>
        <time>2008-02-20T14:28:6.000Z</time>
      </trkpt>
      <trkpt lat="43.9782" lon="1.81608">
        <ele>177</ele>
        <time>2008-02-20T14:28:59.000Z</time>
      </trkpt>
      <trkpt lat="43.97803" lon="1.8155">
        <ele>177</ele>
        <time>2008-02-20T14:29:33.000Z</time>
      </trkpt>
      <trkpt lat="43.97768" lon="1.81493">
        <ele>177</ele>
        <time>2008-02-20T14:30:16.000Z</time>
      </trkpt>
      <trkpt lat="43.97757" lon="1.81465">
        <ele>177</ele>
        <time>2008-02-20T14:30:36.000Z</time>
      </trkpt>
      <trkpt lat="43.97727" lon="1.81392">
        <ele>176</ele>
        <time>2008-02-20T14:31:28.000Z</time>
      </trkpt>
      <trkpt lat="43.9768" lon="1.81287">
        <ele>175</ele>
        <time>2008-02-20T14:32:41.000Z</time>
      </trkpt>
      <trkpt lat="43.97652" lon="1.81148">
        <ele>173</ele>
        <time>2008-02-20T14:34:7.000Z</time>
      </trkpt>
      <trkpt lat="43.97612" lon="1.8096">
        <ele>173</ele>
        <time>2008-02-20T14:36:5.000Z</time>
      </trkpt>
      <trkpt lat="43.97597" lon="1.80893">
        <ele>174</ele>
        <time>2008-02-20T14:36:49.000Z</time>
      </trkpt>
      <trkpt lat="43.97538" lon="1.80878">
        <ele>174</ele>
        <time>2008-02-20T14:37:37.000Z</time>
      </trkpt>
      <trkpt lat="43.97507" lon="1.80592">
        <ele>176</ele>
        <time>2008-02-20T14:40:40.000Z</time>
      </trkpt>
      <trkpt lat="43.97513" lon="1.8051">
        <ele>176</ele>
        <time>2008-02-20T14:41:30.000Z</time>
      </trkpt>
      <trkpt lat="43.97368" lon="1.79897">
        <ele>168</ele>
        <time>2008-02-20T14:47:53.000Z</time>
      </trkpt>
      <trkpt lat="43.9733" lon="1.79795">
        <ele>169</ele>
        <time>2008-02-20T14:49:9.000Z</time>
      </trkpt>
      <trkpt lat="43.973" lon="1.79737">
        <ele>169</ele>
        <time>2008-02-20T14:49:56.000Z</time>
      </trkpt>
      <trkpt lat="43.97178" lon="1.79547">
        <ele>169</ele>
        <time>2008-02-20T14:52:25.000Z</time>
      </trkpt>
      <trkpt lat="43.9714" lon="1.79483">
        <ele>168</ele>
        <time>2008-02-20T14:53:16.000Z</time>
      </trkpt>
      <trkpt lat="43.97125" lon="1.79468">
        <ele>167</ele>
        <time>2008-02-20T14:53:32.000Z</time>
      </trkpt>
      <trkpt lat="43.97098" lon="1.79445">
        <ele>167</ele>
        <time>2008-02-20T14:54:5.000Z</time>
      </trkpt>
      <trkpt lat="43.9708" lon="1.79413">
        <ele>167</ele>
        <time>2008-02-20T14:54:27.000Z</time>
      </trkpt>
      <trkpt lat="43.97065" lon="1.7936">
        <ele>166</ele>
        <time>2008-02-20T14:54:56.000Z</time>
      </trkpt>
      <trkpt lat="43.9705" lon="1.79318">
        <ele>165</ele>
        <time>2008-02-20T14:55:22.000Z</time>
      </trkpt>
      <trkpt lat="43.97033" lon="1.79288">
        <ele>165</ele>
        <time>2008-02-20T14:55:41.000Z</time>
      </trkpt>
      <trkpt lat="43.9699" lon="1.79245">
        <ele>164</ele>
        <time>2008-02-20T14:56:23.000Z</time>
      </trkpt>
      <trkpt lat="43.96968" lon="1.79235">
        <ele>163</ele>
        <time>2008-02-20T14:56:43.000Z</time>
      </trkpt>
      <trkpt lat="43.96938" lon="1.79203">
        <ele>163</ele>
        <time>2008-02-20T14:57:14.000Z</time>
      </trkpt>
      <trkpt lat="43.96915" lon="1.79172">
        <ele>162</ele>
        <time>2008-02-20T14:57:39.000Z</time>
      </trkpt>
      <trkpt lat="43.96873" lon="1.79122">
        <ele>162</ele>
        <time>2008-02-20T14:58:22.000Z</time>
      </trkpt>
      <trkpt lat="43.96855" lon="1.79093">
        <ele>163</ele>
        <time>2008-02-20T14:58:46.000Z</time>
      </trkpt>
      <trkpt lat="43.96863" lon="1.79065">
        <ele>161</ele>
        <time>2008-02-20T14:59:4.000Z</time>
      </trkpt>
      <trkpt lat="43.96915" lon="1.79065">
        <ele>159</ele>
        <time>2008-02-20T14:59:46.000Z</time>
      </trkpt>
      <trkpt lat="43.96935" lon="1.79055">
        <ele>160</ele>
        <time>2008-02-20T15:00:2.000Z</time>
      </trkpt>
      <trkpt lat="43.96952" lon="1.7903">
        <ele>160</ele>
        <time>2008-02-20T15:00:22.000Z</time>
      </trkpt>
      <trkpt lat="43.9696" lon="1.78993">
        <ele>160</ele>
        <time>2008-02-20T15:00:43.000Z</time>
      </trkpt>
      <trkpt lat="43.96975" lon="1.78962">
        <ele>159</ele>
        <time>2008-02-20T15:01:5.000Z</time>
      </trkpt>
      <trkpt lat="43.97" lon="1.78945">
        <ele>160</ele>
        <time>2008-02-20T15:01:27.000Z</time>
      </trkpt>
      <trkpt lat="43.97015" lon="1.78945">
        <ele>160</ele>
        <time>2008-02-20T15:01:38.000Z</time>
      </trkpt>
      <trkpt lat="43.97023" lon="1.7897">
        <ele>161</ele>
        <time>2008-02-20T15:02:4.000Z</time>
      </trkpt>
      <trkpt lat="43.97035" lon="1.78987">
        <ele>162</ele>
        <time>2008-02-20T15:02:17.000Z</time>
      </trkpt>
      <trkpt lat="43.97085" lon="1.78995">
        <ele>163</ele>
        <time>2008-02-20T15:02:52.000Z</time>
      </trkpt>
      <trkpt lat="43.971" lon="1.79">
        <ele>163</ele>
        <time>2008-02-20T15:03:8.000Z</time>
      </trkpt>
      <trkpt lat="43.97125" lon="1.7903">
        <ele>163</ele>
        <time>2008-02-20T15:03:40.000Z</time>
      </trkpt>
      <trkpt lat="43.97157" lon="1.79088">
        <ele>165</ele>
        <time>2008-02-20T15:04:28.000Z</time>
      </trkpt>
      <trkpt lat="43.97167" lon="1.79112">
        <ele>165</ele>
        <time>2008-02-20T15:04:46.000Z</time>
      </trkpt>
      <trkpt lat="43.9718" lon="1.7914">
        <ele>165</ele>
        <time>2008-02-20T15:05:10.000Z</time>
      </trkpt>
      <trkpt lat="43.9719" lon="1.79157">
        <ele>165</ele>
        <time>2008-02-20T15:05:31.000Z</time>
      </trkpt>
      <trkpt lat="43.972" lon="1.79173">
        <ele>165</ele>
        <time>2008-02-20T15:05:46.000Z</time>
      </trkpt>
    </trkseg>
  </trk>
</gpx>